Decoded Metar for LFRV (VANNES in FRANCE) (IATA:VNE) | Meteo·Mobile Aviation Weather
aviador You're here:

LFRV Decoded Metar

VANNES in FRANCE
Report Time2018-12-14 12:00:00
UTC Time2018-12-14 12:29:01
Flight Rules vfr VFR
Wind080° at 04 kt
W.Decomp.*RWY 08: 4.0 kt HW 0.1 kt RCW
RWY 04: 3.0 kt HW 2.6 kt RCW
W.Rank080° ranks 30
Current wind is below 080° avg. (7.0)
Visibility9999 m
Phenomena:N/A
Clouds:Scattered 038 Hf
Overcast 047 Hf
Expected CloudBase > 1,200 ft AGL from Temp-Dew spread
Ceiling4,700 ft
Temp02°C (ISA -12)
Dew Point-1°C (81% RH)
AAT-1.6°C
QNH1020 hPa
Density Alt-1,188 ft
Elevation445 ft
Report Wrong Elevation
Raw Report
METAR LFRV 141200Z AUTO 08004KT 9999 SCT038 OVC047 02/M01 Q1020=

Extra information for LFRV:More info

Metar Taf Metar & Taf Last 4 Metars F.Rules Stats Wind Profile Meteogram Temp Stats Airport Information Weather charts Add Link Nearby VenuesMetar ALERT Operation Metar Decoded Social comments